Pagrindinis puslapis
METAR-TAF:

METAR-TAF

Oro uostai :

Honiara, Gvadalkanalis, Saliamono Salos

platuma: 09-25S, ilguma: 160-03E, Aukštis: 8 m

Dabartinis oras

Ataskaita buvo paskelbta 51 minutes, ne 04:00 UTC
Vėjas 14 kt iš Šiaurės Rytų
Temperatūra 33°C
Drėgmė 63%
Slėgis 1010 hPa
Matomumas 10 km arba daugiau
Mažai debesys ne aukštis 2000 ft
Mažai debesys ne aukštis 2100 ft, Liūtiniai kamuoliniai debesys.

METAR: AGGH 220400Z 05014KT 9999 FEW020 FEW021CB 33/25 Q1010 RMK/ CB ASSW SH TO SE

Laikas: 15:51 (04:51 UTC)

Prognozė

Ataskaita buvo paskelbta 5 valandos ir 41 minutes, ne 23:10 UTC
Prognozė galioja nuo 22 metu 00 UTC su 22 metu 24 UTC
Vėjas 15 kt iš Rytų/Šiaurės Rytų
Matomumas: 1013 m
Išsisklaidę debesys ne aukštis 1800 ft

TAF: AGGH 212310Z 2200/2224 07015KT 9999 SCT018 T 32 32 31 28 Q 1014 1012 1011 1013

Orai ataskaitas ir orų prognozės (METAR, TAF).

turimą stotys yra geltonos ir raudonos taškus žemėlapyje.

Perkelti pele per norėdami pamatyti stoties vardą.

Tada spustelėkite, norėdami matyti oro stebėjimo ir prognozės.

Norėdami pakeisti žemėlapį: spustelėkite ant žalios mygtukų su juodo kryžiaus žemyn,; žalią mygtuką su brūkšneliu, jei norite nutolinti; arba žalių rodyklių gretimoms žemėlapius.


METAR-TAF: